sensor_id;sensor_type;location;lat;lon;timestamp;temperature;humidity
41435;DHT22;27177;22.262;114.192;2023-06-26T00:23:39;26.80;99.90
41435;DHT22;27177;22.262;114.192;2023-06-26T00:31:40;26.80;99.90
41435;DHT22;27177;22.262;114.192;2023-06-26T00:34:21;26.90;99.90
41435;DHT22;27177;22.262;114.192;2023-06-26T00:36:48;26.80;99.90
41435;DHT22;27177;22.262;114.192;2023-06-26T00:39:15;26.80;99.90
41435;DHT22;27177;22.262;114.192;2023-06-26T00:44:17;26.90;99.90
41435;DHT22;27177;22.262;114.192;2023-06-26T00:57:21;27.30;99.90
41435;DHT22;27177;22.262;114.192;2023-06-26T00:59:50;27.40;99.90
41435;DHT22;27177;22.262;114.192;2023-06-26T01:02:17;27.50;99.90
41435;DHT22;27177;22.262;114.192;2023-06-26T01:04:58;27.40;99.90
41435;DHT22;27177;22.262;114.192;2023-06-26T01:07:27;27.50;99.90
41435;DHT22;27177;22.262;114.192;2023-06-26T01:09:53;27.60;99.90
41435;DHT22;27177;22.262;114.192;2023-06-26T01:12:20;27.60;99.90
41435;DHT22;27177;22.262;114.192;2023-06-26T01:17:23;27.80;99.90
41435;DHT22;27177;22.262;114.192;2023-06-26T01:20:13;28.00;99.90
41435;DHT22;27177;22.262;114.192;2023-06-26T01:29:09;28.20;99.90
41435;DHT22;27177;22.262;114.192;2023-06-26T01:39:35;28.40;99.90
41435;DHT22;27177;22.262;114.192;2023-06-26T01:44:44;28.40;99.90
41435;DHT22;27177;22.262;114.192;2023-06-26T01:47:14;28.40;99.90
41435;DHT22;27177;22.262;114.192;2023-06-26T02:00:32;29.10;99.90
41435;DHT22;27177;22.262;114.192;2023-06-26T02:02:59;29.20;99.90
41435;DHT22;27177;22.262;114.192;2023-06-26T02:05:26;29.50;99.90
41435;DHT22;27177;22.262;114.192;2023-06-26T02:10:28;29.60;99.90
41435;DHT22;27177;22.262;114.192;2023-06-26T02:31:03;31.00;99.90
41435;DHT22;27177;22.262;114.192;2023-06-26T02:33:30;30.90;99.90
41435;DHT22;27177;22.262;114.192;2023-06-26T02:35:59;31.00;99.90
41435;DHT22;27177;22.262;114.192;2023-06-26T02:38:26;31.10;99.90
41435;DHT22;27177;22.262;114.192;2023-06-26T02:40:52;31.10;99.90
41435;DHT22;27177;22.262;114.192;2023-06-26T02:43:19;31.30;99.90
41435;DHT22;27177;22.262;114.192;2023-06-26T02:45:46;31.40;99.90
41435;DHT22;27177;22.262;114.192;2023-06-26T02:48:13;31.50;99.90
41435;DHT22;27177;22.262;114.192;2023-06-26T02:53:15;31.70;99.90
41435;DHT22;27177;22.262;114.192;2023-06-26T03:03:28;31.80;99.90
41435;DHT22;27177;22.262;114.192;2023-06-26T03:05:55;31.70;99.90
41435;DHT22;27177;22.262;114.192;2023-06-26T03:10:57;31.20;99.90
41435;DHT22;27177;22.262;114.192;2023-06-26T03:27:37;31.10;99.90
41435;DHT22;27177;22.262;114.192;2023-06-26T03:30:04;31.10;99.90
41435;DHT22;27177;22.262;114.192;2023-06-26T03:32:31;31.30;99.90
41435;DHT22;27177;22.262;114.192;2023-06-26T03:34:58;31.50;99.90
41435;DHT22;27177;22.262;114.192;2023-06-26T03:37:25;31.40;99.90
41435;DHT22;27177;22.262;114.192;2023-06-26T03:39:52;31.30;99.90
41435;DHT22;27177;22.262;114.192;2023-06-26T03:42:18;31.30;99.90
41435;DHT22;27177;22.262;114.192;2023-06-26T03:44:45;31.40;99.90
41435;DHT22;27177;22.262;114.192;2023-06-26T03:47:12;31.50;99.90
41435;DHT22;27177;22.262;114.192;2023-06-26T03:49:39;31.60;99.90
41435;DHT22;27177;22.262;114.192;2023-06-26T03:52:06;31.60;99.90
41435;DHT22;27177;22.262;114.192;2023-06-26T03:54:33;31.50;99.90
41435;DHT22;27177;22.262;114.192;2023-06-26T04:02:20;31.70;99.90
41435;DHT22;27177;22.262;114.192;2023-06-26T04:04:46;31.80;99.90
41435;DHT22;27177;22.262;114.192;2023-06-26T04:09:48;32.20;99.90
41435;DHT22;27177;22.262;114.192;2023-06-26T04:12:15;32.40;99.90
41435;DHT22;27177;22.262;114.192;2023-06-26T04:22:28;31.90;99.90
41435;DHT22;27177;22.262;114.192;2023-06-26T04:24:55;31.80;99.90
41435;DHT22;27177;22.262;114.192;2023-06-26T04:27:22;31.90;99.90
41435;DHT22;27177;22.262;114.192;2023-06-26T04:29:48;32.00;99.90
41435;DHT22;27177;22.262;114.192;2023-06-26T04:32:15;32.00;99.90
41435;DHT22;27177;22.262;114.192;2023-06-26T04:42:28;31.60;99.90
41435;DHT22;27177;22.262;114.192;2023-06-26T05:00:26;31.70;99.90
41435;DHT22;27177;22.262;114.192;2023-06-26T05:02:53;31.90;99.90
41435;DHT22;27177;22.262;114.192;2023-06-26T05:10:41;32.30;99.90
41435;DHT22;27177;22.262;114.192;2023-06-26T05:13:19;32.10;99.90
41435;DHT22;27177;22.262;114.192;2023-06-26T05:20:59;31.30;99.90
41435;DHT22;27177;22.262;114.192;2023-06-26T05:26:02;30.80;99.90
41435;DHT22;27177;22.262;114.192;2023-06-26T05:28:31;30.40;99.90
41435;DHT22;27177;22.262;114.192;2023-06-26T05:31:00;30.20;99.90
41435;DHT22;27177;22.262;114.192;2023-06-26T06:45:31;31.70;99.90
41435;DHT22;27177;22.262;114.192;2023-06-26T06:47:59;31.90;99.90
41435;DHT22;27177;22.262;114.192;2023-06-26T06:50:36;31.80;99.90
41435;DHT22;27177;22.262;114.192;2023-06-26T06:53:08;31.80;99.90
41435;DHT22;27177;22.262;114.192;2023-06-26T06:55:35;31.80;99.90
41435;DHT22;27177;22.262;114.192;2023-06-26T07:04:29;32.20;99.90
41435;DHT22;27177;22.262;114.192;2023-06-26T07:06:56;32.50;99.90
41435;DHT22;27177;22.262;114.192;2023-06-26T07:11:57;32.30;99.90
41435;DHT22;27177;22.262;114.192;2023-06-26T07:14:24;32.00;99.90
41435;DHT22;27177;22.262;114.192;2023-06-26T07:16:51;31.90;99.90
41435;DHT22;27177;22.262;114.192;2023-06-26T07:19:17;31.70;99.90
41435;DHT22;27177;22.262;114.192;2023-06-26T07:21:44;31.70;99.90
41435;DHT22;27177;22.262;114.192;2023-06-26T07:24:12;31.80;99.90
41435;DHT22;27177;22.262;114.192;2023-06-26T07:26:39;31.90;99.90
41435;DHT22;27177;22.262;114.192;2023-06-26T07:29:05;32.00;99.90
41435;DHT22;27177;22.262;114.192;2023-06-26T07:36:42;32.00;99.90
41435;DHT22;27177;22.262;114.192;2023-06-26T07:39:09;32.00;99.90
41435;DHT22;27177;22.262;114.192;2023-06-26T07:41:35;32.20;99.90
41435;DHT22;27177;22.262;114.192;2023-06-26T07:44:02;32.10;99.90
41435;DHT22;27177;22.262;114.192;2023-06-26T07:46:29;32.10;99.90
41435;DHT22;27177;22.262;114.192;2023-06-26T07:48:56;31.90;99.90
41435;DHT22;27177;22.262;114.192;2023-06-26T07:51:23;31.80;99.90
41435;DHT22;27177;22.262;114.192;2023-06-26T07:53:50;31.60;99.90
41435;DHT22;27177;22.262;114.192;2023-06-26T07:56:17;31.60;99.90
41435;DHT22;27177;22.262;114.192;2023-06-26T07:58:43;31.60;99.90
41435;DHT22;27177;22.262;114.192;2023-06-26T08:01:10;31.60;99.90
41435;DHT22;27177;22.262;114.192;2023-06-26T08:03:37;31.90;99.90
41435;DHT22;27177;22.262;114.192;2023-06-26T08:06:03;32.20;99.90
41435;DHT22;27177;22.262;114.192;2023-06-26T08:08:30;32.30;99.90
41435;DHT22;27177;22.262;114.192;2023-06-26T08:10:57;32.30;99.90
41435;DHT22;27177;22.262;114.192;2023-06-26T08:13:24;32.20;99.90
41435;DHT22;27177;22.262;114.192;2023-06-26T08:15:51;32.20;99.90
41435;DHT22;27177;22.262;114.192;2023-06-26T08:18:18;32.10;99.90
41435;DHT22;27177;22.262;114.192;2023-06-26T08:20:45;32.00;99.90
41435;DHT22;27177;22.262;114.192;2023-06-26T08:23:12;31.90;99.90
41435;DHT22;27177;22.262;114.192;2023-06-26T08:25:39;31.80;99.90
41435;DHT22;27177;22.262;114.192;2023-06-26T08:28:05;31.60;99.90
41435;DHT22;27177;22.262;114.192;2023-06-26T08:30:32;31.60;99.90
41435;DHT22;27177;22.262;114.192;2023-06-26T08:32:59;31.50;99.90
41435;DHT22;27177;22.262;114.192;2023-06-26T08:35:26;31.40;99.90
41435;DHT22;27177;22.262;114.192;2023-06-26T08:37:52;31.60;99.90
41435;DHT22;27177;22.262;114.192;2023-06-26T08:40:21;31.90;99.90
41435;DHT22;27177;22.262;114.192;2023-06-26T08:42:48;32.30;99.90
41435;DHT22;27177;22.262;114.192;2023-06-26T08:45:19;32.60;99.90
41435;DHT22;27177;22.262;114.192;2023-06-26T08:47:49;32.90;99.90
41435;DHT22;27177;22.262;114.192;2023-06-26T08:50:20;33.10;99.90
41435;DHT22;27177;22.262;114.192;2023-06-26T08:55:35;33.10;99.90
41435;DHT22;27177;22.262;114.192;2023-06-26T08:58:03;33.10;99.90
41435;DHT22;27177;22.262;114.192;2023-06-26T09:11:21;32.60;99.90
41435;DHT22;27177;22.262;114.192;2023-06-26T09:13:50;32.30;99.90
41435;DHT22;27177;22.262;114.192;2023-06-26T09:16:24;32.20;99.90
41435;DHT22;27177;22.262;114.192;2023-06-26T09:27:03;31.70;99.90
41435;DHT22;27177;22.262;114.192;2023-06-26T11:20:54;28.00;99.90
41435;DHT22;27177;22.262;114.192;2023-06-26T11:23:31;28.00;99.90
41435;DHT22;27177;22.262;114.192;2023-06-26T11:51:53;28.00;99.90
41435;DHT22;27177;22.262;114.192;2023-06-26T12:40:59;27.50;99.90
41435;DHT22;27177;22.262;114.192;2023-06-26T12:43:26;27.50;99.90
41435;DHT22;27177;22.262;114.192;2023-06-26T12:45:56;27.50;99.90
41435;DHT22;27177;22.262;114.192;2023-06-26T12:48:42;27.50;99.90
41435;DHT22;27177;22.262;114.192;2023-06-26T12:51:16;27.50;99.90
41435;DHT22;27177;22.262;114.192;2023-06-26T12:53:43;27.40;99.90
41435;DHT22;27177;22.262;114.192;2023-06-26T12:56:10;27.40;99.90
41435;DHT22;27177;22.262;114.192;2023-06-26T12:58:38;27.40;99.90
41435;DHT22;27177;22.262;114.192;2023-06-26T13:01:07;27.30;99.90
41435;DHT22;27177;22.262;114.192;2023-06-26T13:03:43;27.30;99.90
41435;DHT22;27177;22.262;114.192;2023-06-26T13:06:10;27.20;99.90
41435;DHT22;27177;22.262;114.192;2023-06-26T13:08:37;27.20;99.90
41435;DHT22;27177;22.262;114.192;2023-06-26T13:11:03;27.20;99.90
41435;DHT22;27177;22.262;114.192;2023-06-26T13:13:31;27.20;99.90
41435;DHT22;27177;22.262;114.192;2023-06-26T13:15:58;27.20;99.90
41435;DHT22;27177;22.262;114.192;2023-06-26T13:18:25;27.10;99.90
41435;DHT22;27177;22.262;114.192;2023-06-26T13:20:52;27.10;99.90
41435;DHT22;27177;22.262;114.192;2023-06-26T13:23:18;27.10;99.90
41435;DHT22;27177;22.262;114.192;2023-06-26T13:25:46;27.10;99.90
41435;DHT22;27177;22.262;114.192;2023-06-26T13:28:12;27.10;99.90
41435;DHT22;27177;22.262;114.192;2023-06-26T13:30:39;27.10;99.90
41435;DHT22;27177;22.262;114.192;2023-06-26T13:33:06;27.00;99.90
41435;DHT22;27177;22.262;114.192;2023-06-26T13:35:33;27.10;99.90
41435;DHT22;27177;22.262;114.192;2023-06-26T13:38:01;27.10;99.90
41435;DHT22;27177;22.262;114.192;2023-06-26T13:40:28;27.20;99.90
41435;DHT22;27177;22.262;114.192;2023-06-26T13:42:55;27.10;99.90
41435;DHT22;27177;22.262;114.192;2023-06-26T13:45:21;27.20;99.90
41435;DHT22;27177;22.262;114.192;2023-06-26T13:47:48;27.20;99.90
41435;DHT22;27177;22.262;114.192;2023-06-26T13:50:15;27.20;99.90
41435;DHT22;27177;22.262;114.192;2023-06-26T13:52:42;27.20;99.90
41435;DHT22;27177;22.262;114.192;2023-06-26T13:55:09;27.20;99.90
41435;DHT22;27177;22.262;114.192;2023-06-26T13:57:36;27.30;99.90
41435;DHT22;27177;22.262;114.192;2023-06-26T14:00:08;27.20;99.90
41435;DHT22;27177;22.262;114.192;2023-06-26T14:02:36;27.20;99.90
41435;DHT22;27177;22.262;114.192;2023-06-26T14:05:03;27.20;99.90
41435;DHT22;27177;22.262;114.192;2023-06-26T14:07:30;27.20;99.90
41435;DHT22;27177;22.262;114.192;2023-06-26T14:09:57;27.20;99.90
41435;DHT22;27177;22.262;114.192;2023-06-26T14:12:24;27.10;99.90
41435;DHT22;27177;22.262;114.192;2023-06-26T14:14:51;27.10;99.90
41435;DHT22;27177;22.262;114.192;2023-06-26T14:17:18;27.10;99.90
41435;DHT22;27177;22.262;114.192;2023-06-26T14:19:45;27.10;99.90
41435;DHT22;27177;22.262;114.192;2023-06-26T14:22:12;27.10;99.90
41435;DHT22;27177;22.262;114.192;2023-06-26T14:24:39;27.10;99.90
41435;DHT22;27177;22.262;114.192;2023-06-26T14:27:06;27.10;99.90
41435;DHT22;27177;22.262;114.192;2023-06-26T14:29:33;27.10;99.90
41435;DHT22;27177;22.262;114.192;2023-06-26T14:31:59;27.10;99.90
41435;DHT22;27177;22.262;114.192;2023-06-26T14:34:26;27.10;99.90
41435;DHT22;27177;22.262;114.192;2023-06-26T14:36:53;27.10;99.90
41435;DHT22;27177;22.262;114.192;2023-06-26T14:39:20;27.10;99.90
41435;DHT22;27177;22.262;114.192;2023-06-26T14:41:47;27.10;99.90
41435;DHT22;27177;22.262;114.192;2023-06-26T14:44:14;27.00;99.90
41435;DHT22;27177;22.262;114.192;2023-06-26T14:46:41;27.00;99.90
41435;DHT22;27177;22.262;114.192;2023-06-26T14:49:09;27.00;99.90
41435;DHT22;27177;22.262;114.192;2023-06-26T14:51:36;26.90;99.90
41435;DHT22;27177;22.262;114.192;2023-06-26T14:54:04;27.00;99.90
41435;DHT22;27177;22.262;114.192;2023-06-26T14:56:31;26.90;99.90
41435;DHT22;27177;22.262;114.192;2023-06-26T14:58:58;26.90;99.90
41435;DHT22;27177;22.262;114.192;2023-06-26T15:01:25;26.90;99.90
41435;DHT22;27177;22.262;114.192;2023-06-26T15:03:52;27.00;99.90
41435;DHT22;27177;22.262;114.192;2023-06-26T15:06:18;27.00;99.90
41435;DHT22;27177;22.262;114.192;2023-06-26T15:08:45;27.00;99.90
41435;DHT22;27177;22.262;114.192;2023-06-26T15:11:12;27.00;99.90
41435;DHT22;27177;22.262;114.192;2023-06-26T15:13:39;27.00;99.90
41435;DHT22;27177;22.262;114.192;2023-06-26T15:16:06;27.10;99.90
41435;DHT22;27177;22.262;114.192;2023-06-26T15:18:33;27.00;99.90
41435;DHT22;27177;22.262;114.192;2023-06-26T15:21:00;27.10;99.90
41435;DHT22;27177;22.262;114.192;2023-06-26T15:23:29;27.10;99.90
41435;DHT22;27177;22.262;114.192;2023-06-26T15:25:56;27.10;99.90
41435;DHT22;27177;22.262;114.192;2023-06-26T15:28:23;27.10;99.90
41435;DHT22;27177;22.262;114.192;2023-06-26T15:30:50;27.10;99.90
41435;DHT22;27177;22.262;114.192;2023-06-26T15:33:16;27.10;99.90
41435;DHT22;27177;22.262;114.192;2023-06-26T15:35:43;27.10;99.90
41435;DHT22;27177;22.262;114.192;2023-06-26T15:38:11;27.00;99.90
41435;DHT22;27177;22.262;114.192;2023-06-26T15:40:37;27.00;99.90
41435;DHT22;27177;22.262;114.192;2023-06-26T15:43:04;27.00;99.90
41435;DHT22;27177;22.262;114.192;2023-06-26T15:45:31;27.00;99.90
41435;DHT22;27177;22.262;114.192;2023-06-26T15:47:58;27.00;99.90
41435;DHT22;27177;22.262;114.192;2023-06-26T15:50:25;27.00;99.90
41435;DHT22;27177;22.262;114.192;2023-06-26T15:52:54;27.00;99.90
41435;DHT22;27177;22.262;114.192;2023-06-26T15:55:21;27.00;99.90
41435;DHT22;27177;22.262;114.192;2023-06-26T15:57:48;26.90;99.90
41435;DHT22;27177;22.262;114.192;2023-06-26T16:00:15;26.90;99.90
41435;DHT22;27177;22.262;114.192;2023-06-26T16:02:42;26.90;99.90
41435;DHT22;27177;22.262;114.192;2023-06-26T16:05:09;27.00;99.90
41435;DHT22;27177;22.262;114.192;2023-06-26T16:07:36;26.90;99.90
41435;DHT22;27177;22.262;114.192;2023-06-26T16:10:03;26.90;99.90
41435;DHT22;27177;22.262;114.192;2023-06-26T16:12:30;26.90;99.90
41435;DHT22;27177;22.262;114.192;2023-06-26T16:14:57;26.90;99.90
41435;DHT22;27177;22.262;114.192;2023-06-26T16:17:23;26.90;99.90
41435;DHT22;27177;22.262;114.192;2023-06-26T16:19:50;26.80;99.90
41435;DHT22;27177;22.262;114.192;2023-06-26T16:22:17;26.90;99.90
41435;DHT22;27177;22.262;114.192;2023-06-26T16:24:46;26.90;99.90
41435;DHT22;27177;22.262;114.192;2023-06-26T16:27:13;26.90;99.90
41435;DHT22;27177;22.262;114.192;2023-06-26T16:29:39;26.80;99.90
41435;DHT22;27177;22.262;114.192;2023-06-26T16:32:09;26.90;99.90
41435;DHT22;27177;22.262;114.192;2023-06-26T16:34:36;26.90;99.90
41435;DHT22;27177;22.262;114.192;2023-06-26T16:37:03;26.90;99.90
41435;DHT22;27177;22.262;114.192;2023-06-26T16:39:34;26.90;99.90
41435;DHT22;27177;22.262;114.192;2023-06-26T16:42:01;26.90;99.90
41435;DHT22;27177;22.262;114.192;2023-06-26T16:44:28;26.90;99.90
41435;DHT22;27177;22.262;114.192;2023-06-26T16:46:58;26.90;99.90
41435;DHT22;27177;22.262;114.192;2023-06-26T16:49:25;26.90;99.90
41435;DHT22;27177;22.262;114.192;2023-06-26T16:51:53;26.90;99.90
41435;DHT22;27177;22.262;114.192;2023-06-26T16:54:25;27.00;99.90
41435;DHT22;27177;22.262;114.192;2023-06-26T16:56:55;26.90;99.90
41435;DHT22;27177;22.262;114.192;2023-06-26T16:59:24;26.90;99.90
41435;DHT22;27177;22.262;114.192;2023-06-26T17:01:51;26.90;99.90
41435;DHT22;27177;22.262;114.192;2023-06-26T17:04:17;26.90;99.90
41435;DHT22;27177;22.262;114.192;2023-06-26T17:06:46;26.80;99.90
41435;DHT22;27177;22.262;114.192;2023-06-26T17:09:13;26.90;99.90
41435;DHT22;27177;22.262;114.192;2023-06-26T17:11:40;26.90;99.90
41435;DHT22;27177;22.262;114.192;2023-06-26T17:14:08;26.80;99.90
41435;DHT22;27177;22.262;114.192;2023-06-26T17:16:35;26.80;99.90
41435;DHT22;27177;22.262;114.192;2023-06-26T17:19:02;26.80;99.90
41435;DHT22;27177;22.262;114.192;2023-06-26T17:21:29;26.80;99.90
41435;DHT22;27177;22.262;114.192;2023-06-26T17:23:57;26.80;99.90
41435;DHT22;27177;22.262;114.192;2023-06-26T17:26:24;26.80;99.90
41435;DHT22;27177;22.262;114.192;2023-06-26T17:28:52;26.80;99.90
41435;DHT22;27177;22.262;114.192;2023-06-26T17:31:19;26.80;99.90
41435;DHT22;27177;22.262;114.192;2023-06-26T17:33:46;26.80;99.90
41435;DHT22;27177;22.262;114.192;2023-06-26T17:36:13;26.80;99.90
41435;DHT22;27177;22.262;114.192;2023-06-26T17:38:40;26.80;99.90
41435;DHT22;27177;22.262;114.192;2023-06-26T17:41:08;26.80;99.90
41435;DHT22;27177;22.262;114.192;2023-06-26T17:43:35;26.80;99.90
41435;DHT22;27177;22.262;114.192;2023-06-26T17:46:02;26.80;99.90
41435;DHT22;27177;22.262;114.192;2023-06-26T17:48:29;26.80;99.90
41435;DHT22;27177;22.262;114.192;2023-06-26T17:50:56;26.80;99.90
41435;DHT22;27177;22.262;114.192;2023-06-26T17:53:23;26.80;99.90
41435;DHT22;27177;22.262;114.192;2023-06-26T17:55:49;26.70;99.90
41435;DHT22;27177;22.262;114.192;2023-06-26T17:58:16;26.70;99.90
41435;DHT22;27177;22.262;114.192;2023-06-26T18:00:43;26.80;99.90
41435;DHT22;27177;22.262;114.192;2023-06-26T18:03:10;26.70;99.90
41435;DHT22;27177;22.262;114.192;2023-06-26T18:05:37;26.70;99.90
41435;DHT22;27177;22.262;114.192;2023-06-26T18:08:04;26.70;99.90
41435;DHT22;27177;22.262;114.192;2023-06-26T18:10:31;26.70;99.90
41435;DHT22;27177;22.262;114.192;2023-06-26T18:12:58;26.70;99.90
41435;DHT22;27177;22.262;114.192;2023-06-26T18:15:25;26.70;99.90
41435;DHT22;27177;22.262;114.192;2023-06-26T18:17:51;26.70;99.90
41435;DHT22;27177;22.262;114.192;2023-06-26T18:20:18;26.70;99.90
41435;DHT22;27177;22.262;114.192;2023-06-26T18:22:45;26.70;99.90
41435;DHT22;27177;22.262;114.192;2023-06-26T18:25:12;26.70;99.90
41435;DHT22;27177;22.262;114.192;2023-06-26T18:27:41;26.70;99.90
41435;DHT22;27177;22.262;114.192;2023-06-26T18:30:08;26.70;99.90
41435;DHT22;27177;22.262;114.192;2023-06-26T18:32:35;26.70;99.90
41435;DHT22;27177;22.262;114.192;2023-06-26T18:35:02;26.70;99.90
41435;DHT22;27177;22.262;114.192;2023-06-26T18:37:31;26.70;99.90
41435;DHT22;27177;22.262;114.192;2023-06-26T18:39:58;26.70;99.90
41435;DHT22;27177;22.262;114.192;2023-06-26T18:42:24;26.70;99.90
41435;DHT22;27177;22.262;114.192;2023-06-26T18:44:51;26.70;99.90
41435;DHT22;27177;22.262;114.192;2023-06-26T18:47:18;26.60;99.90
41435;DHT22;27177;22.262;114.192;2023-06-26T18:49:46;26.60;99.90
41435;DHT22;27177;22.262;114.192;2023-06-26T18:52:12;26.70;99.90
41435;DHT22;27177;22.262;114.192;2023-06-26T18:54:39;26.70;99.90
41435;DHT22;27177;22.262;114.192;2023-06-26T18:57:06;26.70;99.90
41435;DHT22;27177;22.262;114.192;2023-06-26T18:59:33;26.70;99.90
41435;DHT22;27177;22.262;114.192;2023-06-26T19:02:00;26.70;99.90
41435;DHT22;27177;22.262;114.192;2023-06-26T19:04:26;26.70;99.90
41435;DHT22;27177;22.262;114.192;2023-06-26T19:06:53;26.80;99.90
41435;DHT22;27177;22.262;114.192;2023-06-26T19:09:20;26.70;99.90
41435;DHT22;27177;22.262;114.192;2023-06-26T19:11:51;26.80;99.90
41435;DHT22;27177;22.262;114.192;2023-06-26T19:14:18;26.70;99.90
41435;DHT22;27177;22.262;114.192;2023-06-26T19:16:45;26.70;99.90
41435;DHT22;27177;22.262;114.192;2023-06-26T19:19:11;26.70;99.90
41435;DHT22;27177;22.262;114.192;2023-06-26T19:21:38;26.70;99.90
41435;DHT22;27177;22.262;114.192;2023-06-26T19:24:05;26.70;99.90
41435;DHT22;27177;22.262;114.192;2023-06-26T19:29:06;26.80;99.90
41435;DHT22;27177;22.262;114.192;2023-06-26T19:31:33;26.70;99.90
41435;DHT22;27177;22.262;114.192;2023-06-26T19:34:00;26.70;99.90
41435;DHT22;27177;22.262;114.192;2023-06-26T19:36:27;26.70;99.90
41435;DHT22;27177;22.262;114.192;2023-06-26T19:38:53;26.70;99.90
41435;DHT22;27177;22.262;114.192;2023-06-26T19:41:20;26.70;99.90
41435;DHT22;27177;22.262;114.192;2023-06-26T19:43:47;26.60;99.90
41435;DHT22;27177;22.262;114.192;2023-06-26T19:46:14;26.70;99.90
41435;DHT22;27177;22.262;114.192;2023-06-26T19:48:41;26.60;99.90
41435;DHT22;27177;22.262;114.192;2023-06-26T19:51:07;26.60;99.90
41435;DHT22;27177;22.262;114.192;2023-06-26T19:53:34;26.60;99.90
41435;DHT22;27177;22.262;114.192;2023-06-26T19:56:01;26.60;99.90
41435;DHT22;27177;22.262;114.192;2023-06-26T19:58:32;26.60;99.90
41435;DHT22;27177;22.262;114.192;2023-06-26T20:01:00;26.60;99.90
41435;DHT22;27177;22.262;114.192;2023-06-26T20:03:31;26.60;99.90
41435;DHT22;27177;22.262;114.192;2023-06-26T20:05:58;26.60;99.90
41435;DHT22;27177;22.262;114.192;2023-06-26T20:08:25;26.60;99.90
41435;DHT22;27177;22.262;114.192;2023-06-26T20:10:52;26.60;99.90
41435;DHT22;27177;22.262;114.192;2023-06-26T20:13:19;26.60;99.90
41435;DHT22;27177;22.262;114.192;2023-06-26T20:15:46;26.60;99.90
41435;DHT22;27177;22.262;114.192;2023-06-26T20:18:13;26.50;99.90
41435;DHT22;27177;22.262;114.192;2023-06-26T20:20:40;26.60;99.90
41435;DHT22;27177;22.262;114.192;2023-06-26T20:23:07;26.50;99.90
41435;DHT22;27177;22.262;114.192;2023-06-26T20:25:33;26.50;99.90
41435;DHT22;27177;22.262;114.192;2023-06-26T20:28:00;26.50;99.90
41435;DHT22;27177;22.262;114.192;2023-06-26T20:30:27;26.50;99.90
41435;DHT22;27177;22.262;114.192;2023-06-26T20:32:54;26.50;99.90
41435;DHT22;27177;22.262;114.192;2023-06-26T20:35:20;26.50;99.90
41435;DHT22;27177;22.262;114.192;2023-06-26T20:37:47;26.50;99.90
41435;DHT22;27177;22.262;114.192;2023-06-26T20:40:16;26.50;99.90
41435;DHT22;27177;22.262;114.192;2023-06-26T20:42:43;26.50;99.90
41435;DHT22;27177;22.262;114.192;2023-06-26T20:45:11;26.50;99.90
41435;DHT22;27177;22.262;114.192;2023-06-26T20:47:38;26.50;99.90
41435;DHT22;27177;22.262;114.192;2023-06-26T20:50:11;26.50;99.90
41435;DHT22;27177;22.262;114.192;2023-06-26T20:52:44;26.50;99.90
41435;DHT22;27177;22.262;114.192;2023-06-26T20:55:12;26.50;99.90
41435;DHT22;27177;22.262;114.192;2023-06-26T20:57:39;26.50;99.90
41435;DHT22;27177;22.262;114.192;2023-06-26T21:00:07;26.50;99.90
41435;DHT22;27177;22.262;114.192;2023-06-26T21:02:34;26.50;99.90
41435;DHT22;27177;22.262;114.192;2023-06-26T21:05:02;26.50;99.90
41435;DHT22;27177;22.262;114.192;2023-06-26T21:07:29;26.50;99.90
41435;DHT22;27177;22.262;114.192;2023-06-26T21:09:57;26.50;99.90
41435;DHT22;27177;22.262;114.192;2023-06-26T21:12:25;26.40;99.90
41435;DHT22;27177;22.262;114.192;2023-06-26T21:14:52;26.40;99.90
41435;DHT22;27177;22.262;114.192;2023-06-26T21:17:19;26.40;99.90
41435;DHT22;27177;22.262;114.192;2023-06-26T21:19:46;26.40;99.90
41435;DHT22;27177;22.262;114.192;2023-06-26T21:22:12;26.40;99.90
41435;DHT22;27177;22.262;114.192;2023-06-26T21:24:40;26.40;99.90
41435;DHT22;27177;22.262;114.192;2023-06-26T21:27:06;26.40;99.90
41435;DHT22;27177;22.262;114.192;2023-06-26T21:29:33;26.40;99.90
41435;DHT22;27177;22.262;114.192;2023-06-26T21:32:02;26.30;99.90
41435;DHT22;27177;22.262;114.192;2023-06-26T21:34:29;26.30;99.90
41435;DHT22;27177;22.262;114.192;2023-06-26T21:36:56;26.40;99.90
41435;DHT22;27177;22.262;114.192;2023-06-26T21:39:23;26.40;99.90
41435;DHT22;27177;22.262;114.192;2023-06-26T21:41:50;26.40;99.90
41435;DHT22;27177;22.262;114.192;2023-06-26T21:44:16;26.40;99.90
41435;DHT22;27177;22.262;114.192;2023-06-26T21:46:43;26.40;99.90
41435;DHT22;27177;22.262;114.192;2023-06-26T21:49:10;26.40;99.90
41435;DHT22;27177;22.262;114.192;2023-06-26T21:51:37;26.40;99.90
41435;DHT22;27177;22.262;114.192;2023-06-26T21:54:03;26.40;99.90
41435;DHT22;27177;22.262;114.192;2023-06-26T21:56:30;26.50;99.90
41435;DHT22;27177;22.262;114.192;2023-06-26T21:58:57;26.50;99.90
41435;DHT22;27177;22.262;114.192;2023-06-26T22:01:23;26.40;99.90
41435;DHT22;27177;22.262;114.192;2023-06-26T22:03:50;26.40;99.90
41435;DHT22;27177;22.262;114.192;2023-06-26T22:06:17;26.50;99.90
41435;DHT22;27177;22.262;114.192;2023-06-26T22:08:44;26.50;99.90
41435;DHT22;27177;22.262;114.192;2023-06-26T22:11:11;26.50;99.90
41435;DHT22;27177;22.262;114.192;2023-06-26T22:13:38;26.50;99.90
41435;DHT22;27177;22.262;114.192;2023-06-26T22:16:06;26.50;99.90
41435;DHT22;27177;22.262;114.192;2023-06-26T22:18:33;26.50;99.90
41435;DHT22;27177;22.262;114.192;2023-06-26T22:21:00;26.50;99.90
41435;DHT22;27177;22.262;114.192;2023-06-26T22:23:26;26.50;99.90
41435;DHT22;27177;22.262;114.192;2023-06-26T22:25:54;26.50;99.90
41435;DHT22;27177;22.262;114.192;2023-06-26T22:28:20;26.50;99.90
41435;DHT22;27177;22.262;114.192;2023-06-26T22:30:47;26.50;99.90
41435;DHT22;27177;22.262;114.192;2023-06-26T22:33:14;26.50;99.90
41435;DHT22;27177;22.262;114.192;2023-06-26T22:35:40;26.50;99.90
41435;DHT22;27177;22.262;114.192;2023-06-26T22:38:07;26.50;99.90
41435;DHT22;27177;22.262;114.192;2023-06-26T22:40:34;26.50;99.90
41435;DHT22;27177;22.262;114.192;2023-06-26T22:43:01;26.50;99.90
41435;DHT22;27177;22.262;114.192;2023-06-26T22:45:32;26.50;99.90
41435;DHT22;27177;22.262;114.192;2023-06-26T22:47:59;26.50;99.90
41435;DHT22;27177;22.262;114.192;2023-06-26T22:50:26;26.50;99.90